Time;durP1;ratioP1;P1;durP2;ratioP2;P2;SDS_P1;SDS_P2;PMS_P1;PMS_P2;Temp;Humidity;BMP_temperature;BMP_pressure;BME280_temperature;BME280_humidity;BME280_pressure;Samples;Min_cycle;Max_cycle;Signal;HPM_P1;HPM_P2
2021/05/01 00:12:18;;;;;;;;;;;;;;;;;;;;;
2021/05/01 00:19:16;;;;;;;;;;;;;;;;;;;;;
2021/05/01 04:13:57;;;;;;;10.02;2.92;;;15.10;99.90;;;;;;4803524;29;20068;-80
2021/05/01 04:24:45;;;;;;;12.07;3.80;;;15.20;99.90;;;;;;4875038;29;20045;-82
2021/05/01 05:14:03;;;;;;;;;;;;;;;;;;;;;
2021/05/01 05:24:09;;;;;;;8.32;3.33;;;17.30;99.90;;;;;;4733798;30;20281;-82
2021/05/01 05:48:21;;;;;;;17.65;3.63;;;18.00;99.90;;;;;;4675467;30;20084;-83
2021/05/01 06:50:06;;;;;;;9.60;2.47;;;22.10;99.90;;;;;;4908535;28;20050;-83
2021/05/01 06:59:54;;;;;;;;;;;22.90;99.90;;;;;;5008813;28;20502;-82
2021/05/01 07:31:07;;;;;;;10.52;3.00;;;29.50;99.90;;;;;;4715783;30;20036;-81
2021/05/01 07:58:47;;;;;;;;;;;;;;;;;;;;;
2021/05/01 08:12:15;;;;;;;16.80;3.45;;;26.70;99.90;;;;;;4871737;29;20105;-82
2021/05/01 08:19:08;;;;;;;;;;;;;;;;;;;;;
2021/05/01 09:10:48;;;;;;;15.02;3.70;;;26.90;99.90;;;;;;4962493;22;20053;-79
2021/05/01 09:13:27;;;;;;;12.43;3.17;;;26.90;99.90;;;;;;5032011;28;20037;-81
2021/05/01 09:16:09;;;;;;;12.40;3.78;;;26.90;99.90;;;;;;5032722;28;20091;-81
2021/05/01 09:18:54;;;;;;;12.60;3.88;;;26.90;99.90;;;;;;5029615;28;20026;-86
2021/05/01 09:21:22;;;;;;;10.50;3.70;;;26.90;99.90;;;;;;5037281;28;20042;-78
2021/05/01 09:23:48;;;;;;;11.60;3.42;;;26.90;99.90;;;;;;5040365;28;20033;-84
2021/05/01 09:26:18;;;;;;;13.68;2.72;;;26.80;99.90;;;;;;5034674;28;20045;-78
2021/05/01 09:28:45;;;;;;;15.13;2.53;;;26.70;99.90;;;;;;5036316;28;20068;-79
2021/05/01 09:31:13;;;;;;;7.63;2.28;;;26.70;99.90;;;;;;5036870;28;20029;-78
2021/05/01 09:33:40;;;;;;;8.85;2.08;;;26.70;99.90;;;;;;5035319;28;20033;-83
2021/05/01 09:36:07;;;;;;;12.00;2.60;;;26.50;99.90;;;;;;5053264;28;20030;-82
2021/05/01 09:38:36;;;;;;;9.82;1.92;;;26.50;99.90;;;;;;5033734;28;20033;-76
2021/05/01 09:41:32;;;;;;;11.93;3.22;;;26.50;99.90;;;;;;5037136;28;20095;-89
2021/05/01 09:44:05;;;;;;;10.10;2.08;;;26.50;99.90;;;;;;5042869;28;20125;-77
2021/05/01 09:46:37;;;;;;;9.45;2.53;;;26.60;99.90;;;;;;5031339;28;20034;-77
2021/05/01 09:49:11;;;;;;;10.98;3.20;;;26.50;99.90;;;;;;5026946;28;20026;-78
2021/05/01 09:51:49;;;;;;;6.38;2.15;;;26.50;99.90;;;;;;5030894;28;20113;-84
2021/05/01 09:54:35;;;;;;;6.07;2.15;;;26.40;99.90;;;;;;5031967;28;20446;-77
2021/05/01 09:57:04;;;;;;;22.48;2.92;;;26.50;99.90;;;;;;5024423;28;20080;-84
2021/05/01 09:59:42;;;;;;;12.15;2.95;;;26.60;99.90;;;;;;5030337;28;20107;-79
2021/05/01 10:02:10;;;;;;;9.15;2.53;;;26.60;99.90;;;;;;5030543;28;20030;-86
2021/05/01 10:04:37;;;;;;;7.35;2.20;;;26.60;99.90;;;;;;5030525;28;20440;-79
2021/05/01 10:07:07;;;;;;;9.93;2.88;;;26.70;99.90;;;;;;5032979;28;20433;-77
2021/05/01 10:09:36;;;;;;;16.60;3.38;;;26.80;99.90;;;;;;5032469;28;20079;-79
2021/05/01 10:12:06;;;;;;;7.32;3.28;;;26.90;99.90;;;;;;5032603;28;20557;-80
2021/05/01 10:14:46;;;;;;;10.75;3.10;;;26.80;99.90;;;;;;5025150;28;20030;-77
2021/05/01 10:17:27;;;;;;;9.70;3.72;;;26.60;99.90;;;;;;5031736;28;20038;-79
2021/05/01 10:19:59;;;;;;;12.30;2.95;;;26.50;99.90;;;;;;5032207;28;20041;-78
2021/05/01 10:22:26;;;;;;;10.90;2.97;;;26.50;99.90;;;;;;5034074;28;20029;-79
2021/05/01 10:24:53;;;;;;;10.27;3.10;;;26.50;99.90;;;;;;5047452;28;20547;-79
2021/05/01 10:27:19;;;;;;;11.02;3.72;;;26.50;99.90;;;;;;5031878;28;20041;-80
2021/05/01 10:30:02;;;;;;;14.63;5.10;;;26.50;99.90;;;;;;5033819;28;20057;-79
2021/05/01 10:32:34;;;;;;;13.18;3.65;;;26.50;99.90;;;;;;5046292;28;20033;-83
2021/05/01 10:35:00;;;;;;;12.32;3.15;;;26.50;99.90;;;;;;5033704;28;20033;-76
2021/05/01 10:37:36;;;;;;;15.27;3.30;;;26.60;99.90;;;;;;5030792;28;20048;-74
2021/05/01 10:40:02;;;;;;;10.32;3.78;;;26.60;99.90;;;;;;5032500;28;20064;-75
2021/05/01 10:42:28;;;;;;;12.88;4.38;;;26.60;99.90;;;;;;5033049;28;20053;-75
2021/05/01 10:44:59;;;;;;;11.50;3.78;;;26.70;99.90;;;;;;5033328;28;20061;-75
2021/05/01 10:47:25;;;;;;;6.88;3.28;;;26.60;99.90;;;;;;5033721;28;20125;-76
2021/05/01 10:49:54;;;;;;;7.53;2.88;;;26.60;99.90;;;;;;5033033;28;20052;-75
2021/05/01 10:52:22;;;;;;;10.23;3.45;;;26.50;99.90;;;;;;5032630;28;20045;-76
2021/05/01 10:55:00;;;;;;;11.88;3.65;;;26.40;99.90;;;;;;5031294;28;20021;-75
2021/05/01 10:57:27;;;;;;;12.73;3.72;;;26.40;99.90;;;;;;5033151;28;20053;-75
2021/05/01 11:00:00;;;;;;;13.75;3.63;;;26.30;99.90;;;;;;5033197;28;20134;-75
2021/05/01 11:02:37;;;;;;;8.15;3.63;;;26.40;99.90;;;;;;5030818;28;20025;-75
2021/05/01 11:05:08;;;;;;;9.65;4.82;;;26.30;99.90;;;;;;5032485;28;20061;-74
2021/05/01 11:07:41;;;;;;;13.20;3.45;;;26.20;99.90;;;;;;5033085;28;20065;-76
2021/05/01 11:10:08;;;;;;;7.38;3.35;;;26.00;99.90;;;;;;5033305;28;20026;-75
2021/05/01 11:12:36;;;;;;;14.85;3.55;;;25.80;99.90;;;;;;5033019;28;20045;-76
2021/05/01 11:15:09;;;;;;;13.02;2.75;;;25.70;99.90;;;;;;5029921;28;20052;-76
2021/05/01 11:17:39;;;;;;;8.73;2.47;;;25.70;99.90;;;;;;5031968;28;20064;-75
2021/05/01 11:20:17;;;;;;;5.35;2.25;;;25.60;99.90;;;;;;5047146;28;20382;-78
2021/05/01 11:22:44;;;;;;;13.05;2.63;;;25.60;99.90;;;;;;5033499;28;20034;-76
2021/05/01 11:25:15;;;;;;;16.90;2.40;;;25.60;99.90;;;;;;5027967;28;20026;-75
2021/05/01 11:27:43;;;;;;;9.27;2.17;;;25.50;99.90;;;;;;5033109;28;20038;-74
2021/05/01 11:30:12;;;;;;;9.43;2.88;;;25.40;99.90;;;;;;5013104;28;20041;-74
2021/05/01 11:32:38;;;;;;;8.65;2.38;;;25.30;99.90;;;;;;5025162;28;21049;-75
2021/05/01 11:35:26;;;;;;;13.68;2.55;;;25.30;99.90;;;;;;5031570;28;20080;-74
2021/05/01 11:37:57;;;;;;;8.15;3.03;;;25.20;99.90;;;;;;5030653;28;20041;-74
2021/05/01 11:40:32;;;;;;;11.32;3.67;;;25.30;99.90;;;;;;5032144;28;20076;-80
2021/05/01 11:42:58;;;;;;;13.27;2.97;;;25.40;99.90;;;;;;5028996;28;20140;-77
2021/05/01 11:45:36;;;;;;;13.57;3.83;;;25.30;99.90;;;;;;5029235;28;20394;-77
2021/05/01 11:48:06;;;;;;;16.40;3.70;;;25.10;99.90;;;;;;5031424;28;20492;-75
2021/05/01 11:50:33;;;;;;;8.73;3.45;;;25.00;99.90;;;;;;5031425;28;20389;-75
2021/05/01 11:53:02;;;;;;;12.05;3.20;;;25.00;99.90;;;;;;5031777;28;20056;-76
2021/05/01 11:55:35;;;;;;;9.48;3.55;;;25.10;99.90;;;;;;5032033;28;20494;-79
2021/05/01 11:58:02;;;;;;;10.02;3.45;;;25.10;99.90;;;;;;5030385;28;20037;-80
2021/05/01 12:00:36;;;;;;;14.93;4.32;;;25.00;99.90;;;;;;5031041;28;20033;-81
2021/05/01 12:03:19;;;;;;;12.70;3.97;;;25.00;99.90;;;;;;5029028;28;20029;-80
2021/05/01 12:05:53;;;;;;;20.95;4.10;;;25.00;99.90;;;;;;5029517;28;20034;-81
2021/05/01 12:08:23;;;;;;;10.50;2.92;;;25.00;99.90;;;;;;5027793;28;20037;-80
2021/05/01 12:10:53;;;;;;;8.63;3.05;;;24.90;99.90;;;;;;5027018;28;20092;-80
2021/05/01 12:13:41;;;;;;;12.57;3.50;;;24.90;99.90;;;;;;5029246;28;20057;-82
2021/05/01 12:16:21;;;;;;;11.98;3.33;;;25.00;99.90;;;;;;5029634;28;20064;-80
2021/05/01 12:18:52;;;;;;;10.95;3.40;;;24.90;99.90;;;;;;5029494;28;20057;-80
2021/05/01 12:21:19;;;;;;;12.87;3.63;;;24.90;99.90;;;;;;5029316;28;20482;-81
2021/05/01 12:23:47;;;;;;;10.25;3.17;;;24.90;99.90;;;;;;5029439;28;20034;-80
2021/05/01 12:26:32;;;;;;;13.63;3.88;;;25.00;99.90;;;;;;5029246;28;20037;-81
2021/05/01 12:29:17;;;;;;;13.95;4.70;;;24.90;99.90;;;;;;5029343;28;20033;-79
2021/05/01 12:31:45;;;;;;;12.75;3.85;;;24.90;99.90;;;;;;5029464;28;20064;-80
2021/05/01 12:34:11;;;;;;;14.05;3.42;;;24.90;99.90;;;;;;5030394;28;20022;-79
2021/05/01 12:36:44;;;;;;;9.77;3.33;;;24.90;99.90;;;;;;5031038;28;20485;-79
2021/05/01 12:39:11;;;;;;;12.57;3.53;;;25.00;99.90;;;;;;5030620;28;20021;-80
2021/05/01 12:41:49;;;;;;;10.52;3.03;;;24.90;99.90;;;;;;5030214;28;20045;-78
2021/05/01 12:44:48;;;;;;;13.35;3.72;;;24.80;99.90;;;;;;5029604;28;20045;-79
2021/05/01 12:47:36;;;;;;;14.05;3.72;;;24.80;99.90;;;;;;4995362;28;20493;-80
2021/05/01 12:50:24;;;;;;;12.95;3.15;;;24.90;99.90;;;;;;5045256;28;20555;-84
2021/05/01 12:52:51;;;;;;;18.15;4.03;;;24.90;99.90;;;;;;5029737;28;20041;-82
2021/05/01 12:55:18;;;;;;;17.50;3.75;;;24.90;99.90;;;;;;5030225;28;20025;-79
2021/05/01 12:57:45;;;;;;;23.83;4.15;;;24.90;99.90;;;;;;5030278;28;20436;-82
2021/05/01 13:00:21;;;;;;;19.30;4.30;;;24.80;99.90;;;;;;5030554;28;20500;-81
2021/05/01 13:03:16;;;;;;;20.73;4.18;;;24.90;99.90;;;;;;5031441;28;20112;-81
2021/05/01 13:05:47;;;;;;;13.68;3.72;;;24.80;99.90;;;;;;5026369;28;20049;-81
2021/05/01 13:08:27;;;;;;;19.52;4.10;;;24.80;99.90;;;;;;5031315;28;20091;-80
2021/05/01 13:10:54;;;;;;;21.15;4.60;;;24.70;99.90;;;;;;5014901;28;20065;-75
2021/05/01 13:13:33;;;;;;;21.65;4.18;;;24.60;99.90;;;;;;5027410;28;20037;-76
2021/05/01 13:16:04;;;;;;;21.65;4.13;;;24.50;99.90;;;;;;5029897;28;20667;-77
2021/05/01 13:18:32;;;;;;;18.60;4.25;;;24.60;99.90;;;;;;5030054;28;20408;-75
2021/05/01 13:21:03;;;;;;;18.73;3.60;;;24.70;99.90;;;;;;5030013;28;20448;-74
2021/05/01 13:23:40;;;;;;;15.43;3.58;;;24.90;99.90;;;;;;5023124;28;20065;-75
2021/05/01 13:26:26;;;;;;;22.05;4.22;;;24.90;99.90;;;;;;5028045;28;20414;-77
2021/05/01 13:28:53;;;;;;;24.13;4.43;;;25.00;99.90;;;;;;5045827;28;20060;-77
2021/05/01 13:31:22;;;;;;;18.83;4.60;;;25.00;99.90;;;;;;5026039;28;20406;-77
2021/05/01 13:33:48;;;;;;;23.52;5.40;;;24.90;99.90;;;;;;5029163;28;20024;-77
2021/05/01 13:36:17;;;;;;;31.05;5.18;;;25.00;99.90;;;;;;5028917;28;20030;-78
2021/05/01 13:38:45;;;;;;;36.55;6.28;;;25.00;99.90;;;;;;5030527;28;20079;-81
2021/05/01 13:41:17;;;;;;;28.00;5.70;;;24.90;99.90;;;;;;5047041;28;20044;-81
2021/05/01 13:43:52;;;;;;;;;;;24.80;99.90;;;;;;5035213;28;20104;-79
2021/05/01 13:46:20;;;;;;;27.55;5.53;;;24.80;99.90;;;;;;5034058;28;20003;-85
2021/05/01 13:48:47;;;;;;;28.23;5.50;;;24.80;99.90;;;;;;5035090;28;20025;-78
2021/05/01 13:51:14;;;;;;;34.95;5.75;;;24.60;99.90;;;;;;5034229;28;20037;-77
2021/05/01 13:53:40;;;;;;;24.20;5.05;;;24.50;99.90;;;;;;5034432;28;20045;-83
2021/05/01 13:56:06;;;;;;;33.78;6.00;;;24.50;99.90;;;;;;5049954;28;20034;-81
2021/05/01 13:58:32;;;;;;;33.08;5.65;;;24.40;99.90;;;;;;5034978;28;20037;-86
2021/05/01 14:00:59;;;;;;;25.52;6.18;;;24.30;99.90;;;;;;5035610;28;20473;-85
2021/05/01 14:03:30;;;;;;;29.00;5.32;;;24.20;99.90;;;;;;5050698;28;20029;-82
2021/05/01 14:05:58;;;;;;;30.35;5.45;;;24.10;99.90;;;;;;5035998;28;20040;-85
2021/05/01 14:08:24;;;;;;;36.30;6.63;;;24.10;99.90;;;;;;5035446;28;20579;-88
2021/05/01 14:10:55;;;;;;;30.60;7.00;;;24.10;99.90;;;;;;5035525;28;20061;-87
2021/05/01 14:13:30;;;;;;;24.83;5.50;;;24.00;99.90;;;;;;5051041;28;20159;-87
2021/05/01 14:15:58;;;;;;;33.83;7.43;;;24.00;99.90;;;;;;5035424;28;20485;-83
2021/05/01 14:18:25;;;;;;;32.70;6.60;;;24.00;99.90;;;;;;5034988;28;20143;-88
2021/05/01 14:20:58;;;;;;;34.35;5.97;;;23.90;99.90;;;;;;5034029;28;20060;-81
2021/05/01 14:23:24;;;;;;;34.10;5.80;;;23.80;99.90;;;;;;5034174;28;20389;-82
2021/05/01 14:25:51;;;;;;;22.70;5.82;;;23.70;99.90;;;;;;5034201;28;20087;-83
2021/05/01 14:28:28;;;;;;;28.75;5.80;;;23.70;99.90;;;;;;5033766;28;20108;-81
2021/05/01 14:33:34;;;;;;;30.27;7.93;;;23.90;99.90;;;;;;5033899;28;20045;-82
2021/05/01 14:36:03;;;;;;;28.77;6.72;;;24.00;99.90;;;;;;5033152;28;20033;-83
2021/05/01 14:38:29;;;;;;;30.35;6.47;;;24.10;99.90;;;;;;5033223;28;20051;-82
2021/05/01 14:40:56;;;;;;;35.70;6.72;;;24.10;99.90;;;;;;5033750;28;20452;-84
2021/05/01 14:43:28;;;;;;;43.83;5.85;;;24.10;99.90;;;;;;5021459;28;20053;-83
2021/05/01 14:46:07;;;;;;;32.30;7.15;;;24.00;99.90;;;;;;5033580;28;20034;-84
2021/05/01 14:48:33;;;;;;;27.95;6.50;;;23.90;99.90;;;;;;5022431;28;20033;-82
2021/05/01 14:51:06;;;;;;;37.28;7.28;;;23.70;99.90;;;;;;5048778;28;20060;-82
2021/05/01 14:53:32;;;;;;;42.80;6.38;;;23.60;99.90;;;;;;5032814;28;20077;-83
2021/05/01 14:56:10;;;;;;;35.55;5.65;;;23.50;99.90;;;;;;5060704;28;20065;-84
2021/05/01 14:58:38;;;;;;;22.60;5.15;;;23.40;99.90;;;;;;5036257;28;20037;-83
2021/05/01 15:01:21;;;;;;;34.03;6.00;;;23.30;99.90;;;;;;5035825;28;20104;-86
2021/05/01 15:03:47;;;;;;;30.80;6.05;;;23.10;99.90;;;;;;5036204;28;20034;-85
2021/05/01 15:06:14;;;;;;;43.33;7.55;;;23.10;99.90;;;;;;5030876;28;20370;-82
2021/05/01 15:08:40;;;;;;;36.55;6.72;;;22.90;99.90;;;;;;5048534;28;20440;-83
2021/05/01 15:11:14;;;;;;;39.80;6.07;;;22.80;99.90;;;;;;5032766;28;20041;-84
2021/05/01 15:13:40;;;;;;;34.15;7.18;;;22.80;99.90;;;;;;5032619;28;20433;-81
2021/05/01 15:16:06;;;;;;;25.08;5.88;;;22.70;99.90;;;;;;5032099;28;20032;-87
2021/05/01 15:18:33;;;;;;;39.03;5.55;;;22.70;99.90;;;;;;5033891;28;20037;-87
2021/05/01 15:21:08;;;;;;;35.13;8.05;;;22.60;99.90;;;;;;5033573;28;20026;-86
2021/05/01 15:23:45;;;;;;;42.30;6.93;;;22.60;99.90;;;;;;5033786;28;20072;-85
2021/05/01 15:26:14;;;;;;;35.38;6.95;;;22.50;99.90;;;;;;5027695;28;20025;-83
2021/05/01 15:28:40;;;;;;;39.78;7.32;;;22.50;99.90;;;;;;5027765;28;20069;-84
2021/05/01 15:31:06;;;;;;;41.70;7.07;;;22.50;99.90;;;;;;5028792;28;20041;-84
2021/05/01 15:33:51;;;;;;;38.40;6.47;;;22.50;99.90;;;;;;5049491;28;20037;-87
2021/05/01 15:36:18;;;;;;;34.28;6.55;;;22.40;99.90;;;;;;5027987;28;20137;-86
2021/05/01 15:38:44;;;;;;;37.63;6.82;;;22.40;99.90;;;;;;5033991;28;20063;-87
2021/05/01 15:41:10;;;;;;;36.92;6.65;;;22.40;99.90;;;;;;5029909;28;20120;-86
2021/05/01 15:43:39;;;;;;;36.28;7.03;;;22.30;99.90;;;;;;5047660;28;20030;-88
2021/05/01 15:46:05;;;;;;;32.60;7.35;;;22.30;99.90;;;;;;5033449;28;21136;-82
2021/05/01 15:48:32;;;;;;;31.75;7.45;;;22.30;99.90;;;;;;5025443;28;20048;-86
2021/05/01 15:50:58;;;;;;;33.97;6.75;;;22.30;99.90;;;;;;5030843;28;20481;-86
2021/05/01 15:53:24;;;;;;;36.17;6.10;;;22.30;99.90;;;;;;5032365;28;20043;-82
2021/05/01 15:55:50;;;;;;;27.08;7.13;;;22.30;99.90;;;;;;5043451;28;20397;-87
2021/05/01 15:58:17;;;;;;;45.58;6.38;;;22.30;99.90;;;;;;5029885;28;20060;-84
2021/05/01 16:00:44;;;;;;;35.35;6.38;;;22.40;99.90;;;;;;5027937;28;20025;-86
2021/05/01 16:03:10;;;;;;;35.33;7.05;;;22.40;99.90;;;;;;5025787;28;20507;-88
2021/05/01 16:05:36;;;;;;;37.33;7.38;;;22.20;99.90;;;;;;5039641;28;20037;-85
2021/05/01 16:08:03;;;;;;;43.63;7.68;;;22.00;99.90;;;;;;5047569;28;20378;-82
2021/05/01 16:10:30;;;;;;;30.77;7.30;;;21.80;99.90;;;;;;5045041;28;20065;-83
2021/05/01 16:12:57;;;;;;;38.60;9.30;;;21.80;99.90;;;;;;5029884;28;20485;-84
2021/05/01 16:15:25;;;;;;;58.92;8.32;;;21.80;99.90;;;;;;5028856;28;20026;-82
2021/05/01 16:17:51;;;;;;;31.08;6.60;;;21.80;99.90;;;;;;5029436;28;20116;-84
2021/05/01 16:20:19;;;;;;;39.92;8.27;;;21.80;99.90;;;;;;5044753;28;20787;-80
2021/05/01 16:22:47;;;;;;;42.35;8.30;;;21.70;99.90;;;;;;5028526;28;20087;-87
2021/05/01 16:25:14;;;;;;;38.42;8.15;;;21.60;99.90;;;;;;5045041;28;20035;-86
2021/05/01 16:27:41;;;;;;;44.75;7.63;;;21.50;99.90;;;;;;5026393;28;20041;-77
2021/05/01 16:30:10;;;;;;;45.13;8.50;;;21.50;99.90;;;;;;5041799;28;20464;-79
2021/05/01 16:32:36;;;;;;;58.95;9.23;;;21.40;99.90;;;;;;5028870;28;20401;-80
2021/05/01 16:35:02;;;;;;;52.75;9.05;;;21.40;99.90;;;;;;5042566;28;20029;-78
2021/05/01 16:37:28;;;;;;;39.58;7.93;;;21.30;99.90;;;;;;5027510;28;20092;-79
2021/05/01 16:39:54;;;;;;;40.67;7.95;;;21.20;99.90;;;;;;5029518;28;20480;-80
2021/05/01 16:42:20;;;;;;;40.40;8.10;;;21.20;99.90;;;;;;5029795;28;20029;-81
2021/05/01 16:44:45;;;;;;;60.20;9.05;;;21.20;99.90;;;;;;5024765;28;20059;-80
2021/05/01 16:47:11;;;;;;;47.15;8.45;;;21.10;99.90;;;;;;5027352;28;20041;-76
2021/05/01 16:49:37;;;;;;;45.13;8.98;;;21.10;99.90;;;;;;5029253;28;20036;-78
2021/05/01 16:52:03;;;;;;;42.08;8.27;;;21.00;99.90;;;;;;5029027;28;20033;-79
2021/05/01 16:54:29;;;;;;;53.05;9.40;;;21.00;99.90;;;;;;5029326;28;20079;-80
2021/05/01 16:56:54;;;;;;;42.92;8.85;;;21.10;99.90;;;;;;5029355;28;20034;-77
2021/05/01 16:59:21;;;;;;;42.00;7.97;;;21.00;99.90;;;;;;5044746;28;20505;-80
2021/05/01 17:01:47;;;;;;;40.42;8.40;;;21.00;99.90;;;;;;5045868;28;20048;-78
2021/05/01 17:04:15;;;;;;;44.38;8.48;;;21.00;99.90;;;;;;5030300;28;20057;-83
2021/05/01 17:06:41;;;;;;;43.90;9.05;;;20.90;99.90;;;;;;5031136;28;20073;-83
2021/05/01 17:09:07;;;;;;;48.72;9.10;;;20.90;99.90;;;;;;5030221;28;20037;-80
2021/05/01 17:11:33;;;;;;;39.30;7.85;;;20.80;99.90;;;;;;5044958;28;20516;-84
2021/05/01 17:13:59;;;;;;;54.50;8.90;;;20.80;99.90;;;;;;5030453;28;20047;-84
2021/05/01 17:16:24;;;;;;;50.70;7.88;;;20.70;99.90;;;;;;5031969;28;20548;-85
2021/05/01 17:18:50;;;;;;;41.05;8.15;;;20.60;99.90;;;;;;5034714;28;20025;-80
2021/05/01 17:21:16;;;;;;;34.33;8.10;;;20.60;99.90;;;;;;5034142;28;20076;-82
2021/05/01 17:23:42;;;;;;;44.28;14.10;;;20.60;99.90;;;;;;5032722;28;20128;-85
2021/05/01 17:26:08;;;;;;;48.30;9.65;;;20.60;99.90;;;;;;5030798;28;20045;-76
2021/05/01 17:28:34;;;;;;;48.08;8.98;;;20.60;99.90;;;;;;5034409;28;20482;-77
2021/05/01 17:31:00;;;;;;;50.17;12.10;;;20.50;99.90;;;;;;5031415;28;20037;-78
2021/05/01 17:33:27;;;;;;;40.10;9.25;;;20.50;99.90;;;;;;5028766;28;20112;-75
2021/05/01 17:35:52;;;;;;;40.53;7.53;;;20.40;99.90;;;;;;5033755;28;20057;-82
2021/05/01 17:38:19;;;;;;;42.75;8.38;;;20.40;99.90;;;;;;5032889;28;20144;-77
2021/05/01 17:40:45;;;;;;;36.42;8.57;;;20.30;99.90;;;;;;5027231;28;20034;-75
2021/05/01 17:43:12;;;;;;;37.70;7.55;;;20.30;99.90;;;;;;5028100;28;20095;-75
2021/05/01 17:45:38;;;;;;;32.15;7.70;;;20.20;99.90;;;;;;5028704;28;20105;-73
2021/05/01 17:48:04;;;;;;;36.50;8.60;;;20.10;99.90;;;;;;5030601;28;20144;-75
2021/05/01 17:50:30;;;;;;;47.80;7.57;;;20.10;99.90;;;;;;5032854;28;20037;-75
2021/05/01 17:52:56;;;;;;;39.83;8.27;;;20.00;99.90;;;;;;5032302;28;20029;-74
2021/05/01 17:55:22;;;;;;;29.48;7.82;;;19.90;99.90;;;;;;5033722;28;20030;-75
2021/05/01 17:57:48;;;;;;;41.10;8.63;;;19.90;99.90;;;;;;5049081;28;20037;-76
2021/05/01 18:00:17;;;;;;;43.90;8.82;;;19.90;99.90;;;;;;5033522;28;20018;-75
2021/05/01 18:02:47;;;;;;;35.10;8.82;;;19.80;99.90;;;;;;5033179;28;20021;-76
2021/05/01 18:05:15;;;;;;;41.97;9.80;;;19.80;99.90;;;;;;5031246;28;20041;-74
2021/05/01 18:07:41;;;;;;;41.53;8.80;;;19.80;99.90;;;;;;5048147;28;20038;-74
2021/05/01 18:10:09;;;;;;;50.35;10.25;;;19.80;99.90;;;;;;5033735;28;20122;-77
2021/05/01 18:12:36;;;;;;;35.42;7.85;;;19.70;99.90;;;;;;5032351;28;20049;-74
2021/05/01 18:15:08;;;;;;;30.10;9.18;;;19.70;99.90;;;;;;5032208;28;20500;-74
2021/05/01 18:17:34;;;;;;;45.88;10.07;;;19.50;99.90;;;;;;5031915;28;20049;-77
2021/05/01 18:20:02;;;;;;;32.75;8.77;;;19.40;99.90;;;;;;5032714;28;20033;-78
2021/05/01 18:22:28;;;;;;;39.53;8.32;;;19.20;99.90;;;;;;5030130;28;20041;-80
2021/05/01 18:24:54;;;;;;;46.33;9.70;;;19.10;99.90;;;;;;5035671;28;20527;-78
2021/05/01 18:27:21;;;;;;;51.22;9.60;;;18.90;99.90;;;;;;5046238;28;20049;-76
2021/05/01 18:29:48;;;;;;;46.67;9.73;;;18.70;99.90;;;;;;5031028;28;20533;-81
2021/05/01 18:32:18;;;;;;;53.63;9.98;;;18.60;99.90;;;;;;5031265;28;20029;-81
2021/05/01 18:34:44;;;;;;;58.22;16.40;;;18.50;99.90;;;;;;5031616;28;20057;-76
2021/05/01 18:37:13;;;;;;;57.80;13.95;;;18.40;99.90;;;;;;5033779;28;20037;-76
2021/05/01 18:39:39;;;;;;;66.25;24.15;;;18.30;99.90;;;;;;5035701;28;20030;-75
2021/05/01 18:42:08;;;;;;;71.43;17.08;;;18.30;99.90;;;;;;5032794;28;20423;-82
2021/05/01 18:44:34;;;;;;;47.88;12.07;;;18.20;99.90;;;;;;5031620;28;20100;-80
2021/05/01 18:47:02;;;;;;;65.55;15.02;;;18.20;99.90;;;;;;5030652;28;20065;-83
2021/05/01 18:49:29;;;;;;;57.33;17.13;;;18.20;99.90;;;;;;5030320;28;20025;-84
2021/05/01 18:51:55;;;;;;;50.40;11.07;;;18.10;99.90;;;;;;5032259;28;20030;-81
2021/05/01 18:54:22;;;;;;;75.25;22.30;;;18.10;99.90;;;;;;5031905;28;20029;-82
2021/05/01 18:56:47;;;;;;;67.18;13.75;;;18.00;99.90;;;;;;5032096;28;20045;-80
2021/05/01 18:59:14;;;;;;;47.05;12.23;;;18.00;99.90;;;;;;5030976;28;20155;-81
2021/05/01 19:01:40;;;;;;;63.67;17.77;;;18.00;99.90;;;;;;5032211;28;20068;-76
2021/05/01 19:04:06;;;;;;;58.00;13.30;;;17.90;99.90;;;;;;5031202;28;20472;-77
2021/05/01 19:06:33;;;;;;;50.53;12.27;;;17.90;99.90;;;;;;5030315;28;20084;-75
2021/05/01 19:08:59;;;;;;;62.50;13.18;;;17.90;99.90;;;;;;5032640;28;20053;-72
2021/05/01 19:11:26;;;;;;;55.42;12.95;;;17.90;99.90;;;;;;5032022;28;20084;-75
2021/05/01 19:13:58;;;;;;;64.50;13.02;;;17.90;99.90;;;;;;5030903;28;20120;-73
2021/05/01 19:16:28;;;;;;;46.22;15.32;;;17.90;99.90;;;;;;5025856;28;20048;-77
2021/05/01 19:18:54;;;;;;;53.50;12.90;;;17.80;99.90;;;;;;5032716;28;20036;-75
2021/05/01 19:21:21;;;;;;;46.25;11.80;;;17.70;99.90;;;;;;5027339;28;20033;-76
2021/05/01 19:23:49;;;;;;;45.28;10.75;;;17.70;99.90;;;;;;5028169;28;20061;-79
2021/05/01 19:26:16;;;;;;;62.88;12.73;;;17.60;99.90;;;;;;5035832;28;20040;-87
2021/05/01 19:28:42;;;;;;;57.95;13.20;;;17.50;99.90;;;;;;5021145;28;20091;-91
2021/05/01 19:31:08;;;;;;;53.20;13.00;;;17.50;99.90;;;;;;5033499;28;20033;-85
2021/05/01 19:33:35;;;;;;;38.05;9.93;;;17.50;99.90;;;;;;5034129;28;20515;-77
2021/05/01 19:36:02;;;;;;;39.13;9.93;;;17.50;99.90;;;;;;5033681;28;20032;-81
2021/05/01 19:38:30;;;;;;;32.63;8.85;;;17.40;99.90;;;;;;5032103;28;20059;-74
2021/05/01 19:40:56;;;;;;;37.08;9.32;;;17.30;99.90;;;;;;5027512;28;20026;-76
2021/05/01 19:43:24;;;;;;;36.92;9.18;;;17.20;99.90;;;;;;5030133;28;20029;-75
2021/05/01 19:45:51;;;;;;;28.50;8.30;;;17.10;99.90;;;;;;5047292;28;20080;-75
2021/05/01 19:48:17;;;;;;;35.35;9.73;;;17.20;99.90;;;;;;5028787;28;20491;-73
2021/05/01 19:50:43;;;;;;;42.88;9.80;;;17.10;99.90;;;;;;5032412;28;20080;-77
2021/05/01 19:53:09;;;;;;;47.00;10.70;;;17.10;99.90;;;;;;5032125;28;20044;-83
2021/05/01 19:55:35;;;;;;;36.03;9.90;;;17.10;99.90;;;;;;5030756;28;20025;-80
2021/05/01 19:58:01;;;;;;;37.28;7.63;;;17.10;99.90;;;;;;5041195;28;20386;-77
2021/05/01 20:00:27;;;;;;;40.85;10.40;;;17.00;99.90;;;;;;5028974;28;20033;-80
2021/05/01 20:02:53;;;;;;;41.90;10.85;;;17.00;99.90;;;;;;5028802;28;20056;-74
2021/05/01 20:05:19;;;;;;;27.52;8.00;;;17.00;99.90;;;;;;5030710;28;20041;-76
2021/05/01 20:07:45;;;;;;;40.08;10.30;;;16.90;99.90;;;;;;5030866;28;20037;-76
2021/05/01 20:10:14;;;;;;;35.75;9.50;;;16.80;99.90;;;;;;5029552;28;20041;-76
2021/05/01 20:12:40;;;;;;;39.42;10.32;;;16.70;99.90;;;;;;5029495;28;20037;-77
2021/05/01 20:15:07;;;;;;;38.35;8.82;;;16.70;99.90;;;;;;5031025;28;20029;-76
2021/05/01 20:17:34;;;;;;;25.42;8.73;;;16.60;99.90;;;;;;5030424;28;20393;-76
2021/05/01 20:19:59;;;;;;;24.83;7.13;;;16.60;99.90;;;;;;5029335;28;20044;-75
2021/05/01 20:22:25;;;;;;;35.33;7.70;;;16.60;99.90;;;;;;5046280;28;20045;-77
2021/05/01 20:24:51;;;;;;;29.30;7.13;;;16.60;99.90;;;;;;5031113;28;20034;-76
2021/05/01 20:27:17;;;;;;;21.75;7.22;;;16.70;99.90;;;;;;5028125;28;20515;-78
2021/05/01 20:29:46;;;;;;;24.58;7.18;;;16.70;99.90;;;;;;5021610;28;20037;-76
2021/05/01 20:32:12;;;;;;;25.42;6.38;;;16.70;99.90;;;;;;5030553;28;20195;-76
2021/05/01 20:34:39;;;;;;;15.50;5.75;;;16.80;99.90;;;;;;5029192;28;20428;-75
2021/05/01 20:37:06;;;;;;;33.35;6.18;;;16.80;99.90;;;;;;5028113;28;20115;-77
2021/05/01 20:39:31;;;;;;;15.82;5.10;;;16.90;99.90;;;;;;5044644;28;20042;-76
2021/05/01 20:41:57;;;;;;;17.70;4.75;;;16.80;99.90;;;;;;5025892;28;20044;-78
2021/05/01 20:44:24;;;;;;;25.08;6.15;;;16.80;99.90;;;;;;5029536;28;20025;-77
2021/05/01 20:46:50;;;;;;;16.98;7.20;;;16.70;99.90;;;;;;5029101;28;20049;-78
2021/05/01 20:49:16;;;;;;;25.00;8.30;;;16.70;99.90;;;;;;5023876;28;20026;-76
2021/05/01 20:51:42;;;;;;;19.60;6.03;;;16.70;99.90;;;;;;5028936;28;20030;-82
2021/05/01 20:54:08;;;;;;;15.88;5.15;;;16.80;99.90;;;;;;5029473;28;20029;-75
2021/05/01 20:56:33;;;;;;;22.73;6.60;;;16.70;99.90;;;;;;5027175;28;20038;-78
2021/05/01 20:58:59;;;;;;;27.23;7.97;;;16.70;99.90;;;;;;5028248;28;20042;-76
2021/05/01 21:01:25;;;;;;;21.70;6.63;;;16.80;99.90;;;;;;5028914;28;20063;-76
2021/05/01 21:03:51;;;;;;;17.13;6.13;;;16.80;99.90;;;;;;5030040;28;20384;-77
2021/05/01 21:06:17;;;;;;;13.40;4.65;;;16.90;99.90;;;;;;5030919;28;20034;-75
2021/05/01 21:08:44;;;;;;;16.20;5.38;;;16.90;99.90;;;;;;5029374;28;20041;-76
2021/05/01 21:11:10;;;;;;;17.42;4.72;;;17.00;99.90;;;;;;5023881;28;20041;-80
2021/05/01 21:13:36;;;;;;;20.85;5.97;;;16.90;99.90;;;;;;5029930;28;20033;-75
2021/05/01 21:16:02;;;;;;;11.27;4.00;;;16.90;99.90;;;;;;5030665;28;20425;-80
2021/05/01 21:18:28;;;;;;;15.45;4.05;;;16.90;99.90;;;;;;5029948;28;20110;-78
2021/05/01 21:20:54;;;;;;;12.30;5.22;;;16.90;99.90;;;;;;5029708;28;20041;-81
2021/05/01 21:23:19;;;;;;;24.42;5.00;;;16.90;99.90;;;;;;5029782;28;20030;-76
2021/05/01 21:25:45;;;;;;;14.88;5.80;;;16.90;99.90;;;;;;5023962;28;20421;-76
2021/05/01 21:28:12;;;;;;;17.63;5.53;;;16.90;99.90;;;;;;5028349;28;20044;-76
2021/05/01 21:30:38;;;;;;;19.25;5.07;;;17.00;99.90;;;;;;5043187;28;20038;-75
2021/05/01 21:33:04;;;;;;;20.83;5.00;;;17.00;99.90;;;;;;5028037;28;20034;-76